Time;durP1;ratioP1;P1;durP2;ratioP2;P2;SDS_P1;SDS_P2;PMS_P1;PMS_P2;Temp;Humidity;BMP_temperature;BMP_pressure;BME280_temperature;BME280_humidity;BME280_pressure;Samples;Min_cycle;Max_cycle;Signal;HPM_P1;HPM_P2
2021/07/15 08:26:20;;;;;;;156.15;148.63;;;18.50;99.90;;;;;;5090851;27;20562;-72
2021/07/15 08:28:46;;;;;;;134.93;128.75;;;18.50;99.90;;;;;;5090893;28;20636;-72
2021/07/15 08:31:11;;;;;;;153.15;145.75;;;18.60;99.90;;;;;;5090889;28;20221;-72
2021/07/15 08:33:37;;;;;;;154.13;146.95;;;18.70;99.90;;;;;;5090795;28;20179;-72
2021/07/15 08:36:03;;;;;;;167.10;159.07;;;18.80;99.90;;;;;;5090787;28;20183;-72
2021/07/15 08:38:29;;;;;;;179.60;171.30;;;18.80;99.90;;;;;;5090612;28;20279;-72
2021/07/15 08:40:55;;;;;;;145.48;138.80;;;18.90;99.90;;;;;;5090641;28;20199;-72
2021/07/15 08:43:22;;;;;;;147.50;140.88;;;19.10;99.90;;;;;;5089368;28;20178;-72
2021/07/15 08:45:49;;;;;;;164.52;157.05;;;19.20;99.90;;;;;;5090557;28;20205;-72
2021/07/15 08:48:15;;;;;;;121.28;115.82;;;19.30;99.90;;;;;;5089244;28;20175;-72
2021/07/15 08:50:41;;;;;;;225.95;215.07;;;19.40;99.90;;;;;;5090550;28;20684;-72
2021/07/15 08:53:07;;;;;;;173.13;165.13;;;19.50;99.90;;;;;;5090354;28;20171;-72
2021/07/15 08:58:28;;;;;;;146.77;140.00;;;19.70;99.90;;;;;;5070571;28;20184;-70
2021/07/15 09:00:53;;;;;;;406.88;384.30;;;19.80;99.90;;;;;;5090303;28;20163;-69
2021/07/15 09:03:19;;;;;;;649.38;608.10;;;19.90;99.90;;;;;;5090132;28;20164;-70
2021/07/15 09:05:45;;;;;;;874.28;810.17;;;19.90;99.90;;;;;;5090112;28;20187;-70
2021/07/15 09:08:13;;;;;;;775.60;713.67;;;20.10;99.90;;;;;;5090199;28;20164;-70
2021/07/15 09:10:40;;;;;;;142.32;135.68;;;20.20;99.90;;;;;;5090159;28;20164;-70
2021/07/15 09:13:05;;;;;;;711.15;661.15;;;20.30;99.90;;;;;;5090047;28;20159;-72
2021/07/15 09:15:31;;;;;;;1053.20;959.70;;;20.30;99.90;;;;;;5088820;28;20680;-72
2021/07/15 09:17:57;;;;;;;416.33;393.45;;;20.40;99.90;;;;;;5089964;28;20195;-70
2021/07/15 09:20:25;;;;;;;390.05;368.13;;;20.50;99.90;;;;;;5089897;28;20197;-70
2021/07/15 09:23:02;;;;;;;282.20;268.05;;;20.50;99.90;;;;;;5089899;28;20651;-70
2021/07/15 09:25:38;;;;;;;250.55;238.05;;;20.70;99.90;;;;;;5089587;28;20284;-70
2021/07/15 09:28:06;;;;;;;457.17;433.73;;;20.70;99.90;;;;;;5089788;28;20166;-70
2021/07/15 09:30:32;;;;;;;390.92;371.63;;;20.80;99.90;;;;;;5088432;28;20180;-70
2021/07/15 09:33:01;;;;;;;501.50;475.02;;;20.80;99.90;;;;;;5089577;28;20160;-70
2021/07/15 09:35:32;;;;;;;464.20;439.88;;;20.80;99.90;;;;;;5089322;28;20628;-70
2021/07/15 09:38:14;;;;;;;456.58;432.00;;;20.80;99.90;;;;;;5074375;28;20586;-70
2021/07/15 09:40:50;;;;;;;553.03;522.47;;;20.70;99.90;;;;;;5076077;28;20629;-70
2021/07/15 09:43:25;;;;;;;569.58;537.75;;;20.60;99.90;;;;;;5076017;28;20163;-70
2021/07/15 09:45:53;;;;;;;539.38;510.25;;;20.50;99.90;;;;;;5075986;28;20195;-70
2021/07/15 09:48:21;;;;;;;537.85;509.33;;;20.40;99.90;;;;;;5075917;28;20213;-72
2021/07/15 09:50:48;;;;;;;476.08;452.25;;;20.40;99.90;;;;;;5075890;28;20641;-73
2021/07/15 09:53:20;;;;;;;550.22;520.50;;;20.30;99.90;;;;;;5075808;28;20218;-72
2021/07/15 09:55:47;;;;;;;478.35;453.63;;;20.30;99.90;;;;;;5074440;28;20176;-72
2021/07/15 09:58:14;;;;;;;244.18;232.73;;;20.40;99.90;;;;;;5075803;28;20164;-72
2021/07/15 10:00:45;;;;;;;398.60;378.98;;;20.60;99.90;;;;;;5075701;28;20175;-72
2021/07/15 10:03:12;;;;;;;449.02;425.80;;;20.70;99.90;;;;;;5075257;28;20171;-72
2021/07/15 10:05:49;;;;;;;484.42;458.92;;;20.80;99.90;;;;;;5075568;28;20202;-72
2021/07/15 10:08:27;;;;;;;456.40;432.58;;;20.90;99.90;;;;;;5075552;28;20159;-73
2021/07/15 10:10:54;;;;;;;450.13;426.88;;;21.00;99.90;;;;;;5075528;28;20170;-72
2021/07/15 10:13:22;;;;;;;431.90;410.08;;;20.90;99.90;;;;;;5075469;28;20168;-73
2021/07/15 10:15:49;;;;;;;497.65;471.55;;;20.80;99.90;;;;;;5075759;28;20160;-72
2021/07/15 10:18:35;;;;;;;527.95;499.55;;;20.70;99.90;;;;;;5075345;28;20269;-72
2021/07/15 10:21:00;;;;;;;354.50;337.27;;;20.60;99.90;;;;;;5075346;28;20191;-72
2021/07/15 10:23:37;;;;;;;436.92;414.52;;;20.50;99.90;;;;;;5075249;28;20168;-72
2021/07/15 10:26:06;;;;;;;399.15;379.33;;;20.40;99.90;;;;;;5075021;28;20230;-72
2021/07/15 10:28:32;;;;;;;314.13;299.17;;;20.40;99.90;;;;;;5075132;28;20156;-72
2021/07/15 10:31:03;;;;;;;260.25;248.10;;;20.40;99.90;;;;;;5075097;28;20174;-72
2021/07/15 10:33:29;;;;;;;247.90;236.48;;;20.40;99.90;;;;;;5075133;28;20238;-73
2021/07/15 10:35:58;;;;;;;238.05;227.02;;;20.40;99.90;;;;;;5075167;28;20160;-72
2021/07/15 10:38:27;;;;;;;260.55;248.43;;;20.30;99.90;;;;;;5074890;28;20190;-70
2021/07/15 10:40:54;;;;;;;158.82;151.45;;;20.20;99.90;;;;;;5074886;28;20211;-70
2021/07/15 10:43:20;;;;;;;159.85;152.50;;;20.20;99.90;;;;;;5074879;28;20171;-70
2021/07/15 10:45:46;;;;;;;165.40;157.80;;;20.20;99.90;;;;;;5074664;28;20199;-70
2021/07/15 10:48:13;;;;;;;141.95;135.50;;;20.10;99.90;;;;;;5073752;28;20183;-70
2021/07/15 10:50:41;;;;;;;200.60;191.00;;;20.10;99.90;;;;;;5074682;28;20156;-70
2021/07/15 10:53:08;;;;;;;255.48;243.25;;;20.00;99.90;;;;;;5074643;28;20563;-72
2021/07/15 10:55:35;;;;;;;159.27;151.77;;;19.90;99.90;;;;;;5074666;28;20522;-72
2021/07/15 10:58:00;;;;;;;316.90;301.25;;;19.90;99.90;;;;;;5074539;28;20167;-72
2021/07/15 11:00:27;;;;;;;409.60;388.75;;;19.80;99.90;;;;;;5074483;28;20160;-72
2021/07/15 11:03:09;;;;;;;520.72;493.90;;;19.70;99.90;;;;;;5074409;28;20225;-72
2021/07/15 11:05:55;;;;;;;566.75;537.08;;;19.60;99.90;;;;;;5074326;28;20225;-72
2021/07/15 11:08:48;;;;;;;521.55;495.23;;;19.60;99.90;;;;;;5074344;28;20156;-72
2021/07/15 11:11:15;;;;;;;531.58;504.58;;;19.50;99.90;;;;;;5074271;28;20704;-72
2021/07/15 11:13:42;;;;;;;658.97;622.72;;;19.50;99.90;;;;;;5074228;28;20174;-72
2021/07/15 11:16:08;;;;;;;625.90;592.28;;;19.50;99.90;;;;;;5074235;28;20164;-72
2021/07/15 11:21:27;;;;;;;518.35;491.98;;;19.50;99.90;;;;;;5074128;28;20181;-72
2021/07/15 11:23:54;;;;;;;443.83;421.90;;;19.50;99.90;;;;;;5074049;28;20167;-72
2021/07/15 11:26:27;;;;;;;257.83;245.50;;;19.60;99.90;;;;;;5074007;28;20199;-72
2021/07/15 11:28:52;;;;;;;255.25;243.32;;;19.60;99.90;;;;;;5073884;28;20221;-72
2021/07/15 11:31:40;;;;;;;148.55;141.82;;;19.70;99.90;;;;;;5073858;28;20168;-72
2021/07/15 11:34:06;;;;;;;129.32;123.50;;;19.70;99.90;;;;;;5073831;28;20168;-72
2021/07/15 11:36:32;;;;;;;137.68;131.40;;;19.80;99.90;;;;;;5073848;28;20164;-72
2021/07/15 11:39:00;;;;;;;151.68;144.70;;;19.90;99.90;;;;;;5073729;28;20184;-72
2021/07/15 11:41:48;;;;;;;149.30;142.48;;;19.90;99.90;;;;;;5073773;28;20178;-72
2021/07/15 11:44:16;;;;;;;182.07;173.60;;;20.10;99.90;;;;;;5073680;28;20640;-72
2021/07/15 11:46:44;;;;;;;203.95;194.52;;;20.20;99.90;;;;;;5073690;28;20168;-72
2021/07/15 11:49:11;;;;;;;196.30;187.18;;;20.20;99.90;;;;;;5072345;28;20529;-72
2021/07/15 11:51:43;;;;;;;244.30;232.88;;;20.20;99.90;;;;;;5072832;28;20568;-72
2021/07/15 11:54:13;;;;;;;231.55;220.65;;;20.30;99.90;;;;;;5073592;28;20277;-72
2021/07/15 11:56:39;;;;;;;228.18;217.50;;;20.30;99.90;;;;;;5073511;28;20183;-72
2021/07/15 11:59:04;;;;;;;246.40;234.77;;;20.30;99.90;;;;;;5073305;28;20161;-72
2021/07/15 12:01:32;;;;;;;289.63;275.90;;;20.30;99.90;;;;;;5073530;28;20170;-72
2021/07/15 12:04:08;;;;;;;280.33;267.10;;;20.30;99.90;;;;;;5073466;28;20168;-72
2021/07/15 12:06:37;;;;;;;256.65;244.73;;;20.30;99.90;;;;;;5073451;28;20258;-72
2021/07/15 12:09:09;;;;;;;179.02;170.68;;;20.20;99.90;;;;;;5073387;28;20633;-72
2021/07/15 12:11:36;;;;;;;152.93;145.68;;;20.20;99.90;;;;;;5072175;28;20172;-72
2021/07/15 12:14:03;;;;;;;95.38;91.10;;;20.10;99.90;;;;;;5073395;28;20226;-72
2021/07/15 12:16:31;;;;;;;154.20;146.95;;;20.10;99.90;;;;;;5073479;28;20579;-72
2021/07/15 12:19:05;;;;;;;101.35;96.80;;;20.00;99.90;;;;;;5073331;28;20663;-72
2021/07/15 12:21:31;;;;;;;126.30;120.60;;;20.00;99.90;;;;;;5073249;28;20179;-72
2021/07/15 12:24:08;;;;;;;127.78;122.03;;;20.00;99.90;;;;;;5072941;28;20180;-72
2021/07/15 12:26:35;;;;;;;264.60;252.10;;;20.00;99.90;;;;;;5073298;28;20258;-72
2021/07/15 12:29:02;;;;;;;178.50;170.32;;;19.90;99.90;;;;;;5073206;28;20195;-72
2021/07/15 12:31:30;;;;;;;292.00;278.02;;;19.90;99.90;;;;;;5071965;28;20655;-72
2021/07/15 12:34:04;;;;;;;405.77;385.73;;;19.90;99.90;;;;;;5073084;28;20168;-72
2021/07/15 12:36:31;;;;;;;413.80;393.50;;;19.80;99.90;;;;;;5073202;28;20190;-72
2021/07/15 12:39:00;;;;;;;321.35;306.20;;;19.80;99.90;;;;;;5073094;28;20184;-72
2021/07/15 12:41:31;;;;;;;196.23;187.13;;;19.80;99.90;;;;;;5073104;28;20168;-72
2021/07/15 12:43:57;;;;;;;271.55;258.67;;;19.90;99.90;;;;;;5071853;28;20203;-72
2021/07/15 12:46:37;;;;;;;177.93;169.77;;;19.90;99.90;;;;;;5071674;28;20214;-72
2021/07/15 12:49:06;;;;;;;224.88;214.48;;;19.90;99.90;;;;;;5073037;28;20164;-72
2021/07/15 12:51:41;;;;;;;216.10;205.95;;;20.00;99.90;;;;;;5072972;28;20160;-72
2021/07/15 12:54:12;;;;;;;168.55;160.90;;;20.00;99.90;;;;;;5072926;28;20170;-72
2021/07/15 12:56:38;;;;;;;121.90;116.45;;;20.00;99.90;;;;;;5071738;28;20541;-72
2021/07/15 12:59:11;;;;;;;109.75;104.72;;;20.10;99.90;;;;;;5072860;28;20176;-72
2021/07/15 13:01:39;;;;;;;117.13;111.80;;;20.10;99.90;;;;;;5071892;28;20160;-72
2021/07/15 13:04:19;;;;;;;160.48;153.02;;;20.30;99.90;;;;;;5072796;28;20163;-72
2021/07/15 13:06:56;;;;;;;227.85;216.98;;;20.40;99.90;;;;;;5072861;28;20183;-72
2021/07/15 13:15:12;;;;;;;274.65;261.73;;;20.80;99.90;;;;;;5076412;28;20190;-72
2021/07/15 13:17:47;;;;;;;275.02;262.00;;;20.80;99.90;;;;;;5076465;28;20629;-72
2021/07/15 13:20:14;;;;;;;262.20;249.88;;;20.70;99.90;;;;;;5076464;28;20178;-72
2021/07/15 13:22:42;;;;;;;183.52;174.73;;;20.80;99.90;;;;;;5076368;28;20176;-72
2021/07/15 13:25:15;;;;;;;244.02;232.68;;;20.80;99.90;;;;;;5076122;28;20207;-72
2021/07/15 13:27:45;;;;;;;278.45;264.83;;;20.80;99.90;;;;;;5076370;28;20225;-72
2021/07/15 13:30:14;;;;;;;230.70;219.88;;;20.80;99.90;;;;;;5076228;28;20164;-72
2021/07/15 13:32:40;;;;;;;255.27;243.40;;;20.90;99.90;;;;;;5076245;28;20168;-72
2021/07/15 13:35:16;;;;;;;246.77;234.95;;;21.10;99.90;;;;;;5074911;28;20168;-72
2021/07/15 13:37:42;;;;;;;303.25;288.52;;;21.40;99.90;;;;;;5076492;28;20209;-72
2021/07/15 13:40:36;;;;;;;470.30;445.50;;;21.60;99.90;;;;;;5075994;28;20195;-72
2021/07/15 13:43:06;;;;;;;510.55;482.92;;;21.90;99.90;;;;;;5075762;28;20544;-72
2021/07/15 13:45:32;;;;;;;423.00;401.20;;;22.30;99.90;;;;;;5075913;28;20195;-73
2021/07/15 13:48:08;;;;;;;493.25;466.55;;;22.70;99.90;;;;;;5075957;28;20167;-72
2021/07/15 13:50:34;;;;;;;709.13;665.58;;;23.00;99.90;;;;;;5075912;28;20628;-70
2021/07/15 13:53:01;;;;;;;1999.90;999.90;;;23.20;99.90;;;;;;5075827;28;20172;-70
2021/07/15 13:55:28;;;;;;;1999.90;999.90;;;23.30;99.90;;;;;;5075671;28;20275;-70
2021/07/15 13:57:55;;;;;;;1999.90;999.90;;;23.30;99.90;;;;;;5075755;28;20167;-70
2021/07/15 14:00:29;;;;;;;1999.90;999.90;;;23.30;99.90;;;;;;5075794;28;20168;-70
2021/07/15 14:02:57;;;;;;;1999.90;999.90;;;23.20;99.90;;;;;;5075632;28;20655;-70
2021/07/15 14:05:28;;;;;;;1999.90;999.90;;;23.20;99.90;;;;;;5075591;28;20256;-70
2021/07/15 14:07:55;;;;;;;1999.90;999.90;;;23.20;99.90;;;;;;5075577;28;20225;-70
2021/07/15 14:10:21;;;;;;;1999.90;999.90;;;23.20;99.90;;;;;;5075534;28;20234;-70
2021/07/15 14:12:48;;;;;;;1999.90;999.90;;;23.10;99.90;;;;;;5075475;28;20266;-70
2021/07/15 14:15:25;;;;;;;1999.90;999.90;;;23.10;99.90;;;;;;5075402;28;20188;-70
2021/07/15 14:18:05;;;;;;;1999.90;999.90;;;23.20;99.90;;;;;;5075404;28;20563;-70
2021/07/15 14:20:51;;;;;;;1999.90;999.90;;;23.30;99.90;;;;;;5075368;28;20189;-70
2021/07/15 14:23:27;;;;;;;1999.90;999.90;;;23.30;99.90;;;;;;5075199;28;20648;-71
2021/07/15 14:25:56;;;;;;;1999.90;999.90;;;23.60;99.90;;;;;;5075148;28;20229;-70
2021/07/15 14:28:22;;;;;;;1999.90;999.90;;;23.80;99.90;;;;;;5075219;28;20213;-70
2021/07/15 14:30:49;;;;;;;1999.90;999.90;;;24.10;99.90;;;;;;5075092;28;20218;-70
2021/07/15 14:33:14;;;;;;;1999.90;999.90;;;24.50;99.90;;;;;;5075103;28;20239;-71
2021/07/15 14:35:41;;;;;;;1999.90;999.90;;;24.80;99.90;;;;;;5074946;28;20278;-73
2021/07/15 14:38:09;;;;;;;1999.90;999.90;;;24.80;99.90;;;;;;5074923;28;20656;-73
2021/07/15 14:40:36;;;;;;;1999.90;999.90;;;24.80;99.90;;;;;;5073482;28;20168;-70
2021/07/15 14:43:02;;;;;;;1999.90;999.90;;;24.70;99.90;;;;;;5074935;28;20172;-73
2021/07/15 14:45:29;;;;;;;1999.90;999.90;;;24.60;99.90;;;;;;5074843;28;20202;-73
2021/07/15 14:47:54;;;;;;;1999.90;999.90;;;24.50;99.90;;;;;;5074767;28;20543;-72
2021/07/15 14:50:23;;;;;;;1999.90;999.90;;;24.40;99.90;;;;;;5074760;28;20172;-73
2021/07/15 14:52:49;;;;;;;1999.90;999.90;;;24.20;99.90;;;;;;5074923;28;20533;-70
2021/07/15 14:55:15;;;;;;;1999.90;999.90;;;24.40;99.90;;;;;;5074496;28;20195;-70
2021/07/15 14:57:41;;;;;;;1999.90;999.90;;;24.70;99.90;;;;;;5074541;28;20172;-70
2021/07/15 15:00:09;;;;;;;1999.90;999.90;;;24.90;99.90;;;;;;5074517;28;20172;-70
2021/07/15 15:02:36;;;;;;;1999.90;999.90;;;24.80;99.90;;;;;;5074465;28;20159;-70
2021/07/15 15:05:05;;;;;;;1999.90;999.90;;;24.80;99.90;;;;;;5074450;28;20194;-70
2021/07/15 15:07:31;;;;;;;1999.90;999.90;;;24.70;99.90;;;;;;5074392;28;20258;-70
2021/07/15 15:09:57;;;;;;;1999.90;999.90;;;24.80;99.90;;;;;;5073094;28;20207;-70
2021/07/15 15:12:23;;;;;;;1999.90;999.90;;;24.90;99.90;;;;;;5074215;28;20171;-70
2021/07/15 15:14:49;;;;;;;1999.90;999.90;;;25.00;99.90;;;;;;5074216;28;20256;-71
2021/07/15 15:17:14;;;;;;;1999.90;999.90;;;25.10;99.90;;;;;;5074106;28;20688;-71
2021/07/15 15:19:40;;;;;;;1999.90;999.90;;;25.00;99.90;;;;;;5074189;28;20183;-70
2021/07/15 15:22:05;;;;;;;1999.90;999.90;;;24.90;99.90;;;;;;5074076;28;20167;-70
2021/07/15 15:24:31;;;;;;;1999.90;999.90;;;24.90;99.90;;;;;;5073853;28;20215;-70
2021/07/15 15:26:59;;;;;;;1999.90;999.90;;;24.80;99.90;;;;;;5074035;28;20645;-73
2021/07/15 15:29:25;;;;;;;1999.90;999.90;;;24.90;99.90;;;;;;5072743;28;20178;-73
2021/07/15 15:31:51;;;;;;;1999.90;999.90;;;24.80;99.90;;;;;;5072691;28;20253;-70
2021/07/15 15:34:17;;;;;;;1999.90;999.90;;;24.80;99.90;;;;;;5073302;28;20577;-70
2021/07/15 15:36:42;;;;;;;1999.90;999.90;;;24.70;99.90;;;;;;5073850;28;20172;-70
2021/07/15 15:39:08;;;;;;;1999.90;999.90;;;24.70;99.90;;;;;;5073774;28;20214;-70
2021/07/15 15:41:34;;;;;;;1999.90;999.90;;;24.60;99.90;;;;;;5073728;28;20659;-70
2021/07/15 15:44:00;;;;;;;1999.90;999.90;;;24.60;99.90;;;;;;5073710;28;20168;-70
2021/07/15 15:46:25;;;;;;;1999.90;999.90;;;24.50;99.90;;;;;;5073724;28;20226;-70
2021/07/15 15:48:51;;;;;;;1999.90;999.90;;;24.30;99.90;;;;;;5073709;28;20175;-70
2021/07/15 15:51:16;;;;;;;1999.90;999.90;;;24.00;99.90;;;;;;5073667;28;20573;-70
2021/07/15 15:53:42;;;;;;;1999.90;999.90;;;23.90;99.90;;;;;;5073642;28;20175;-70
2021/07/15 15:56:08;;;;;;;1999.90;999.90;;;23.90;99.90;;;;;;5073436;28;20187;-70
2021/07/15 15:58:34;;;;;;;1999.90;999.90;;;23.80;99.90;;;;;;5073534;28;20162;-70
2021/07/15 16:01:01;;;;;;;1999.90;999.90;;;23.80;99.90;;;;;;5073522;28;20168;-70
2021/07/15 16:03:27;;;;;;;1999.90;999.90;;;23.70;99.90;;;;;;5073456;28;20171;-70
2021/07/15 16:05:53;;;;;;;1999.90;999.90;;;23.60;99.90;;;;;;5073495;28;20175;-70
2021/07/15 16:08:19;;;;;;;1999.90;999.90;;;23.50;99.90;;;;;;5073445;28;20180;-70
2021/07/15 16:10:47;;;;;;;1999.90;999.90;;;23.50;99.90;;;;;;5073366;28;20167;-72
2021/07/15 16:13:13;;;;;;;1999.90;999.90;;;23.60;99.90;;;;;;5073393;28;20246;-72
2021/07/15 16:15:41;;;;;;;1999.90;999.90;;;23.70;99.90;;;;;;5073318;28;20274;-72
2021/07/15 16:18:07;;;;;;;1999.90;999.90;;;23.80;99.90;;;;;;5073317;28;20168;-73
2021/07/15 16:20:36;;;;;;;1999.90;999.90;;;24.00;99.90;;;;;;5073246;28;20167;-70
2021/07/15 16:23:04;;;;;;;1999.90;999.90;;;24.10;99.90;;;;;;5073086;28;20672;-70
2021/07/15 16:25:31;;;;;;;1999.90;999.90;;;24.00;99.90;;;;;;5072944;28;20254;-70
2021/07/15 16:27:57;;;;;;;1378.80;999.90;;;24.20;99.90;;;;;;5073052;28;20167;-70
2021/07/15 16:30:26;;;;;;;1634.75;999.90;;;24.50;99.90;;;;;;5073196;28;20183;-70
2021/07/15 16:32:53;;;;;;;1999.90;999.90;;;24.70;99.90;;;;;;5073175;28;20233;-70
2021/07/15 16:35:19;;;;;;;1765.00;999.90;;;25.00;99.90;;;;;;5073122;28;20184;-70
2021/07/15 16:37:46;;;;;;;1999.90;999.90;;;25.00;99.90;;;;;;5072878;28;20621;-70
2021/07/15 16:40:15;;;;;;;1999.90;999.90;;;25.10;99.90;;;;;;5072874;28;20195;-70
2021/07/15 16:42:46;;;;;;;1999.90;999.90;;;25.20;99.90;;;;;;5073028;28;20163;-70
2021/07/15 16:45:16;;;;;;;1969.70;999.90;;;25.20;99.90;;;;;;5072955;28;20633;-70
2021/07/15 16:47:42;;;;;;;1999.90;999.90;;;25.20;99.90;;;;;;5076160;28;20207;-70
2021/07/15 16:50:09;;;;;;;1999.90;999.90;;;25.30;99.90;;;;;;5076941;28;20218;-70
2021/07/15 16:52:35;;;;;;;1999.90;999.90;;;25.10;99.90;;;;;;5076859;28;20168;-70
2021/07/15 16:55:00;;;;;;;1832.90;999.90;;;25.00;99.90;;;;;;5076779;28;20198;-70
2021/07/15 16:57:26;;;;;;;1999.90;999.90;;;24.60;99.90;;;;;;5076821;28;20172;-70
2021/07/15 16:59:52;;;;;;;1734.40;999.90;;;24.30;99.90;;;;;;5076737;28;20176;-70
2021/07/15 17:02:17;;;;;;;1724.97;999.90;;;24.00;99.90;;;;;;5076645;28;20178;-70
2021/07/15 17:04:43;;;;;;;1455.22;999.90;;;23.70;99.90;;;;;;5076495;28;20249;-70
2021/07/15 17:07:08;;;;;;;1567.38;999.90;;;23.50;99.90;;;;;;5075234;28;20270;-70
2021/07/15 17:09:34;;;;;;;1540.10;999.90;;;23.30;99.90;;;;;;5076656;28;20183;-69
2021/07/15 17:12:00;;;;;;;1493.13;999.90;;;23.20;99.90;;;;;;5076345;28;20172;-70
2021/07/15 17:14:25;;;;;;;1538.65;999.90;;;23.10;99.90;;;;;;5076349;28;20175;-70
2021/07/15 17:16:51;;;;;;;1516.30;999.90;;;22.90;99.90;;;;;;5075034;28;20190;-70
2021/07/15 17:19:17;;;;;;;1591.38;999.90;;;22.70;99.90;;;;;;5076346;28;20187;-71
2021/07/15 17:21:42;;;;;;;1473.25;999.90;;;22.50;99.90;;;;;;5076207;28;20176;-70
2021/07/15 17:24:09;;;;;;;1413.65;999.90;;;22.40;99.90;;;;;;5075883;28;20206;-70
2021/07/15 17:26:35;;;;;;;1429.97;999.90;;;22.30;99.90;;;;;;5074940;28;20555;-72
2021/07/15 17:29:02;;;;;;;1483.18;999.90;;;22.30;99.90;;;;;;5074938;28;20263;-70
2021/07/15 17:31:29;;;;;;;1499.55;999.90;;;22.20;99.90;;;;;;5076421;28;20187;-71
2021/07/15 17:33:55;;;;;;;1469.43;999.90;;;22.10;99.90;;;;;;5076217;28;20178;-70
2021/07/15 17:36:23;;;;;;;1444.30;999.90;;;22.10;99.90;;;;;;5076370;28;20217;-70
2021/07/15 17:38:49;;;;;;;1348.22;999.90;;;22.20;99.90;;;;;;5076383;28;20208;-70
2021/07/15 17:41:15;;;;;;;1372.40;999.90;;;22.40;99.90;;;;;;5075937;28;20164;-70
2021/07/15 17:43:42;;;;;;;1351.97;999.90;;;22.60;99.90;;;;;;5076047;28;20294;-71
2021/07/15 17:46:08;;;;;;;1351.88;999.90;;;22.70;99.90;;;;;;5076009;28;20215;-70
2021/07/15 17:48:34;;;;;;;1344.35;999.90;;;22.80;99.90;;;;;;5075888;28;20164;-71
2021/07/15 17:51:01;;;;;;;1398.68;999.90;;;22.80;99.90;;;;;;5075939;28;20172;-70
2021/07/15 17:53:27;;;;;;;1352.70;999.90;;;22.60;99.90;;;;;;5075840;28;20184;-70
2021/07/15 17:55:53;;;;;;;1489.70;999.90;;;22.60;99.90;;;;;;5075388;28;20544;-70
2021/07/15 17:58:18;;;;;;;1387.57;999.90;;;22.30;99.90;;;;;;5075296;28;20163;-70
2021/07/15 18:00:44;;;;;;;1345.47;999.90;;;22.10;99.90;;;;;;5074437;28;20172;-70
2021/07/15 18:03:10;;;;;;;1342.47;999.90;;;22.00;99.90;;;;;;5075609;28;20513;-71
2021/07/15 18:05:36;;;;;;;1434.05;999.90;;;21.80;99.90;;;;;;5075642;28;20241;-72
2021/07/15 18:08:03;;;;;;;1479.80;999.90;;;21.50;99.90;;;;;;5075851;28;20214;-72
2021/07/15 18:10:30;;;;;;;1426.50;999.90;;;21.40;99.90;;;;;;5075575;28;20541;-72
2021/07/15 18:13:00;;;;;;;1477.88;999.90;;;21.20;99.90;;;;;;5075360;28;20246;-73
2021/07/15 18:15:27;;;;;;;1468.15;999.90;;;21.10;99.90;;;;;;5075433;28;20196;-72
2021/07/15 18:17:54;;;;;;;1484.75;999.90;;;21.00;99.90;;;;;;5074160;28;20183;-72
2021/07/15 18:20:22;;;;;;;1455.32;999.90;;;21.00;99.90;;;;;;5075383;28;20160;-72
2021/07/15 18:22:48;;;;;;;1379.55;999.90;;;21.00;99.90;;;;;;5075329;28;20172;-72
2021/07/15 18:25:16;;;;;;;1338.05;999.90;;;20.90;99.90;;;;;;5075121;28;20224;-70
2021/07/15 18:27:42;;;;;;;1327.40;999.90;;;20.90;99.90;;;;;;5075227;28;20163;-70
2021/07/15 18:30:10;;;;;;;1305.40;999.90;;;20.90;99.90;;;;;;5073896;28;20176;-70
2021/07/15 18:32:36;;;;;;;1301.05;999.90;;;20.90;99.90;;;;;;5074895;28;20259;-70
2021/07/15 18:35:02;;;;;;;1323.65;999.90;;;20.80;99.90;;;;;;5074961;28;20202;-70
2021/07/15 18:37:28;;;;;;;1302.22;999.90;;;20.70;99.90;;;;;;5074963;28;20172;-70
2021/07/15 18:39:53;;;;;;;1342.47;999.90;;;20.60;99.90;;;;;;5074969;28;20175;-70
2021/07/15 18:42:19;;;;;;;1424.43;999.90;;;20.50;99.90;;;;;;5074928;28;20305;-72
2021/07/15 18:44:48;;;;;;;1454.05;999.90;;;20.40;99.90;;;;;;5072930;28;20282;-72
2021/07/15 18:47:17;;;;;;;1399.97;999.90;;;20.30;99.90;;;;;;5074745;28;20167;-70
2021/07/15 18:49:43;;;;;;;1380.70;999.90;;;20.30;99.90;;;;;;5074767;28;20171;-73
2021/07/15 18:52:09;;;;;;;1337.70;999.90;;;20.30;99.90;;;;;;5074776;28;20309;-72
2021/07/15 18:54:35;;;;;;;1370.68;999.90;;;20.30;99.90;;;;;;5074151;28;20187;-72
2021/07/15 18:57:01;;;;;;;1341.47;999.90;;;20.20;99.90;;;;;;5074439;28;20179;-72
2021/07/15 18:59:26;;;;;;;1417.22;999.90;;;20.10;99.90;;;;;;5074125;28;20625;-72
2021/07/15 19:01:52;;;;;;;1375.38;999.90;;;20.00;99.90;;;;;;5074356;28;20199;-72
2021/07/15 19:04:19;;;;;;;1378.05;999.90;;;19.90;99.90;;;;;;5073002;28;20172;-72
2021/07/15 19:06:47;;;;;;;1334.93;999.90;;;19.90;99.90;;;;;;5074040;28;20171;-72
2021/07/15 19:09:14;;;;;;;1386.15;999.90;;;19.90;99.90;;;;;;5073625;28;20172;-72
2021/07/15 19:11:40;;;;;;;1371.32;999.90;;;19.80;99.90;;;;;;5074288;28;20621;-72
2021/07/15 19:14:06;;;;;;;1363.70;999.90;;;19.80;99.90;;;;;;5074205;28;20178;-72
2021/07/15 19:16:32;;;;;;;1375.82;999.90;;;19.70;99.90;;;;;;5074144;28;20195;-72
2021/07/15 19:18:58;;;;;;;1357.05;999.90;;;19.70;99.90;;;;;;5074217;28;20179;-72
2021/07/15 19:21:24;;;;;;;1337.03;999.90;;;19.60;99.90;;;;;;5074165;28;20629;-73
